createdAt,value
2018-12-20T00:00:15.336Z,9.60
2018-12-20T00:01:18.904Z,9.60
2018-12-20T00:02:22.506Z,9.60
2018-12-20T00:03:25.942Z,9.60
2018-12-20T00:04:29.342Z,9.60
2018-12-20T00:05:32.770Z,9.60
2018-12-20T00:06:36.380Z,9.60
2018-12-20T00:07:39.792Z,9.60
2018-12-20T00:08:43.228Z,9.60
2018-12-20T00:09:46.711Z,9.60
2018-12-20T00:10:50.139Z,9.60
2018-12-20T00:11:53.663Z,9.60
2018-12-20T00:12:57.211Z,9.60
2018-12-20T00:14:00.705Z,9.60
2018-12-20T00:15:04.422Z,9.50
2018-12-20T00:16:07.802Z,9.50
2018-12-20T00:17:16.742Z,9.50
2018-12-20T00:18:20.602Z,9.50
2018-12-20T00:19:24.316Z,9.50
2018-12-20T00:20:27.864Z,9.50
2018-12-20T00:21:31.288Z,9.50
2018-12-20T00:22:34.649Z,9.50
2018-12-20T00:23:38.027Z,9.50
2018-12-20T00:24:41.684Z,9.50
2018-12-20T00:25:45.328Z,9.50
2018-12-20T00:26:48.829Z,9.50
2018-12-20T00:27:52.359Z,9.50
2018-12-20T00:28:55.803Z,9.50
2018-12-20T00:29:59.312Z,9.60
2018-12-20T00:31:02.773Z,9.60
2018-12-20T00:32:06.386Z,9.60
2018-12-20T00:33:10.203Z,9.60
2018-12-20T00:34:13.681Z,9.60
2018-12-20T00:35:17.206Z,9.60
2018-12-20T00:36:20.808Z,9.60
2018-12-20T00:37:24.285Z,9.70
2018-12-20T00:38:27.776Z,9.70
2018-12-20T00:39:31.608Z,9.70
2018-12-20T00:40:35.066Z,9.70
2018-12-20T00:41:38.479Z,9.70
2018-12-20T00:42:42.030Z,9.70
2018-12-20T00:43:45.470Z,9.70
2018-12-20T00:44:49.078Z,9.70
2018-12-20T00:45:52.587Z,9.70
2018-12-20T00:46:56.199Z,9.70
2018-12-20T00:47:59.977Z,9.80
2018-12-20T00:49:03.480Z,9.80
2018-12-20T00:50:07.415Z,9.80
2018-12-20T00:51:10.886Z,9.80
2018-12-20T00:52:14.286Z,9.80
2018-12-20T00:53:17.800Z,9.80
2018-12-20T00:54:21.514Z,9.80
2018-12-20T00:55:25.267Z,9.80
2018-12-20T00:56:28.840Z,9.80
2018-12-20T00:57:32.419Z,9.80
2018-12-20T00:58:35.981Z,9.80
2018-12-20T00:59:39.397Z,9.80
2018-12-20T01:00:42.787Z,9.80
2018-12-20T01:01:46.229Z,9.90
2018-12-20T01:02:55.248Z,9.90
2018-12-20T01:03:55.177Z,9.90
2018-12-20T01:04:58.589Z,9.90
2018-12-20T01:06:02.177Z,9.90
2018-12-20T01:07:05.757Z,9.90
2018-12-20T01:08:09.184Z,9.90
2018-12-20T01:09:12.579Z,9.90
2018-12-20T01:10:16.062Z,9.90
2018-12-20T01:11:19.501Z,9.90
2018-12-20T01:12:22.981Z,9.90
2018-12-20T01:13:26.517Z,9.90
2018-12-20T01:14:29.958Z,9.90
2018-12-20T01:15:33.462Z,9.90
2018-12-20T01:16:37.047Z,9.90
2018-12-20T01:17:40.671Z,9.90
2018-12-20T01:18:44.213Z,9.90
2018-12-20T01:19:47.864Z,9.90
2018-12-20T01:20:51.400Z,9.90
2018-12-20T01:21:54.996Z,9.90
2018-12-20T01:22:58.602Z,9.90
2018-12-20T01:24:02.074Z,10.00
2018-12-20T01:25:06.078Z,10.00
2018-12-20T01:26:09.559Z,10.00
2018-12-20T01:27:12.961Z,10.00
2018-12-20T01:28:16.500Z,10.00
2018-12-20T01:29:19.895Z,10.00
2018-12-20T01:30:23.281Z,10.00
2018-12-20T01:31:26.772Z,10.00
2018-12-20T01:32:30.142Z,10.00
2018-12-20T01:33:33.540Z,10.00
2018-12-20T01:34:37.035Z,10.00
2018-12-20T01:35:40.602Z,10.00
2018-12-20T01:36:44.039Z,9.90
2018-12-20T01:37:47.681Z,10.00
2018-12-20T01:38:51.229Z,10.00
2018-12-20T01:39:54.698Z,9.90
2018-12-20T01:40:58.190Z,9.90
2018-12-20T01:42:01.743Z,9.90
2018-12-20T01:43:05.217Z,10.00
2018-12-20T01:44:08.751Z,9.90
2018-12-20T01:45:12.449Z,9.90
2018-12-20T01:46:16.063Z,9.90
2018-12-20T01:47:19.581Z,9.90
2018-12-20T01:48:23.108Z,9.90
2018-12-20T01:49:26.873Z,9.90
2018-12-20T01:50:30.395Z,9.90
2018-12-20T01:51:33.926Z,9.90
2018-12-20T01:52:37.383Z,9.90
2018-12-20T01:53:40.909Z,9.90
2018-12-20T01:54:44.402Z,9.90
2018-12-20T01:55:48.246Z,9.90
2018-12-20T01:56:51.916Z,9.90
2018-12-20T01:57:55.365Z,9.90
2018-12-20T01:58:58.745Z,9.90
2018-12-20T02:00:02.142Z,9.90
2018-12-20T02:01:05.560Z,9.90
2018-12-20T02:02:09.233Z,9.90
2018-12-20T02:03:12.822Z,9.90
2018-12-20T02:04:16.289Z,9.90
2018-12-20T02:05:19.802Z,9.90
2018-12-20T02:06:23.227Z,9.80
2018-12-20T02:07:26.731Z,9.80
2018-12-20T02:08:30.166Z,9.80
2018-12-20T02:09:33.590Z,9.80
2018-12-20T02:10:37.104Z,9.80
2018-12-20T02:11:40.534Z,9.80
2018-12-20T02:12:43.915Z,9.80
2018-12-20T02:13:47.406Z,9.80
2018-12-20T02:14:51.030Z,9.80
2018-12-20T02:15:54.746Z,9.80
2018-12-20T02:16:58.282Z,9.90
2018-12-20T02:18:01.715Z,9.90
2018-12-20T02:19:05.311Z,9.90
2018-12-20T02:20:09.060Z,9.90
2018-12-20T02:21:12.594Z,9.90
2018-12-20T02:22:16.212Z,9.90
2018-12-20T02:23:19.768Z,9.90
2018-12-20T02:24:23.462Z,9.90
2018-12-20T02:25:27.312Z,9.90
2018-12-20T02:26:30.719Z,9.90
2018-12-20T02:27:34.106Z,9.90
2018-12-20T02:28:37.787Z,9.90
2018-12-20T02:29:41.252Z,9.90
2018-12-20T02:30:44.792Z,9.90
2018-12-20T02:31:48.200Z,9.90
2018-12-20T02:32:51.549Z,9.90
2018-12-20T02:33:55.008Z,9.90
2018-12-20T02:34:58.798Z,9.90
2018-12-20T02:36:02.238Z,9.90
2018-12-20T02:37:05.651Z,9.90
2018-12-20T02:38:09.052Z,9.80
2018-12-20T02:39:12.514Z,9.90
2018-12-20T02:40:16.105Z,9.90
2018-12-20T02:41:19.606Z,9.90
2018-12-20T02:42:23.222Z,9.90
2018-12-20T02:43:26.594Z,9.90
2018-12-20T02:44:30.159Z,9.90
2018-12-20T02:45:33.725Z,9.90
2018-12-20T02:46:37.251Z,9.90
2018-12-20T02:47:40.718Z,9.90
2018-12-20T02:48:44.185Z,9.90
2018-12-20T02:49:47.640Z,9.90
2018-12-20T02:50:51.325Z,9.90
2018-12-20T02:51:54.772Z,9.90
2018-12-20T02:52:58.428Z,9.90
2018-12-20T02:54:01.943Z,9.90
2018-12-20T02:55:05.487Z,9.90
2018-12-20T02:56:08.937Z,9.90
2018-12-20T02:57:12.338Z,9.90
2018-12-20T02:58:15.875Z,9.90
2018-12-20T02:59:19.420Z,9.90
2018-12-20T03:00:23.077Z,9.90
2018-12-20T03:01:26.470Z,9.90
2018-12-20T03:02:29.852Z,9.90
2018-12-20T03:03:33.302Z,9.90
2018-12-20T03:04:36.705Z,9.90
2018-12-20T03:05:40.265Z,9.90
2018-12-20T03:06:43.935Z,9.90
2018-12-20T03:07:47.526Z,9.90
2018-12-20T03:08:51.179Z,9.90
2018-12-20T03:09:54.597Z,9.90
2018-12-20T03:10:57.969Z,9.90
2018-12-20T03:12:01.335Z,9.90
2018-12-20T03:13:04.748Z,9.90
2018-12-20T03:14:08.217Z,9.90
2018-12-20T03:15:19.698Z,9.90
2018-12-20T03:16:17.079Z,9.90
2018-12-20T03:17:20.944Z,9.90
2018-12-20T03:18:24.535Z,9.90
2018-12-20T03:19:28.140Z,9.90
2018-12-20T03:20:31.630Z,9.90
2018-12-20T03:21:35.225Z,9.90
2018-12-20T03:22:38.708Z,9.90
2018-12-20T03:23:42.320Z,9.90
2018-12-20T03:24:46.001Z,9.90
2018-12-20T03:25:49.503Z,9.90
2018-12-20T03:26:52.895Z,10.00
2018-12-20T03:27:56.264Z,10.00
2018-12-20T03:28:59.871Z,10.00
2018-12-20T03:30:03.670Z,10.00
2018-12-20T03:31:07.349Z,10.00
2018-12-20T03:32:11.131Z,10.00
2018-12-20T03:33:14.621Z,10.00
2018-12-20T03:34:18.244Z,10.00
2018-12-20T03:35:21.774Z,9.90
2018-12-20T03:36:25.281Z,9.90
2018-12-20T03:37:29.181Z,9.90
2018-12-20T03:38:32.883Z,9.90
2018-12-20T03:39:36.531Z,9.90
2018-12-20T03:40:40.277Z,9.90
2018-12-20T03:41:44.271Z,9.90
2018-12-20T03:42:47.772Z,9.90
2018-12-20T03:43:51.314Z,9.90
2018-12-20T03:44:54.922Z,9.90
2018-12-20T03:45:58.388Z,10.00
2018-12-20T03:47:01.969Z,10.00
2018-12-20T03:48:05.782Z,10.00
2018-12-20T03:49:09.308Z,10.00
2018-12-20T03:50:12.860Z,10.00
2018-12-20T03:51:16.525Z,10.00
2018-12-20T03:52:19.983Z,10.00
2018-12-20T03:53:23.588Z,10.00
2018-12-20T03:54:27.181Z,10.00
2018-12-20T03:55:30.810Z,10.00
2018-12-20T03:56:34.589Z,10.00
2018-12-20T03:57:38.117Z,10.00
2018-12-20T03:58:41.745Z,10.00
2018-12-20T03:59:45.236Z,10.00
2018-12-20T04:00:48.843Z,10.00
2018-12-20T04:01:52.278Z,10.00
2018-12-20T04:02:55.814Z,10.00
2018-12-20T04:03:59.333Z,10.00
2018-12-20T04:05:02.978Z,10.00
2018-12-20T04:06:06.762Z,10.00
2018-12-20T04:07:10.314Z,10.00
2018-12-20T04:08:13.928Z,10.00
2018-12-20T04:09:17.476Z,10.00
2018-12-20T04:10:21.064Z,10.00
2018-12-20T04:11:24.537Z,10.00
2018-12-20T04:12:27.963Z,10.00
2018-12-20T04:13:31.578Z,10.00
2018-12-20T04:14:35.002Z,10.00
2018-12-20T04:15:38.504Z,10.00
2018-12-20T04:16:42.068Z,10.00
2018-12-20T04:17:45.742Z,10.00
2018-12-20T04:18:49.857Z,10.00
2018-12-20T04:19:53.350Z,10.00
2018-12-20T04:20:56.818Z,10.00
2018-12-20T04:22:00.532Z,10.00
2018-12-20T04:23:03.993Z,10.00
2018-12-20T04:24:07.478Z,10.00
2018-12-20T04:25:10.959Z,10.00
2018-12-20T04:26:14.654Z,10.00
2018-12-20T04:27:18.270Z,10.00
2018-12-20T04:28:21.821Z,10.00
2018-12-20T04:29:25.436Z,10.00
2018-12-20T04:30:28.973Z,10.00
2018-12-20T04:31:32.482Z,10.00
2018-12-20T04:32:35.882Z,10.00
2018-12-20T04:33:39.359Z,10.00
2018-12-20T04:34:42.905Z,10.00
2018-12-20T04:35:46.607Z,10.00
2018-12-20T04:36:50.122Z,10.00
2018-12-20T04:37:53.692Z,10.00
2018-12-20T04:38:57.320Z,10.00
2018-12-20T04:40:00.901Z,10.00
2018-12-20T04:41:04.695Z,10.00
2018-12-20T04:42:08.255Z,10.00
2018-12-20T04:43:11.848Z,10.00
2018-12-20T04:44:15.596Z,10.00
2018-12-20T04:45:19.329Z,10.00
2018-12-20T04:46:22.823Z,10.00
2018-12-20T04:47:26.429Z,10.00
2018-12-20T04:48:29.963Z,10.10
2018-12-20T04:49:33.534Z,10.10
2018-12-20T04:50:36.993Z,10.10
2018-12-20T04:51:40.463Z,10.10
2018-12-20T04:52:44.204Z,10.10
2018-12-20T04:53:47.837Z,10.10
2018-12-20T04:54:51.302Z,10.10
2018-12-20T04:55:55.074Z,10.10
2018-12-20T04:56:58.748Z,10.10
2018-12-20T04:58:02.217Z,10.10
2018-12-20T04:59:05.870Z,10.10
2018-12-20T05:00:11.448Z,10.10
2018-12-20T05:01:14.878Z,10.10
2018-12-20T05:02:18.277Z,10.00
2018-12-20T05:03:21.908Z,10.00
2018-12-20T05:04:25.311Z,10.00
2018-12-20T05:05:28.790Z,10.00
2018-12-20T05:06:32.246Z,10.00
2018-12-20T05:07:35.615Z,10.00
2018-12-20T05:08:38.978Z,10.00
2018-12-20T05:09:42.342Z,10.00
2018-12-20T05:10:45.754Z,10.00
2018-12-20T05:11:49.504Z,10.00
2018-12-20T05:12:53.163Z,10.00
2018-12-20T05:13:56.582Z,10.00
2018-12-20T05:15:00.055Z,10.00
2018-12-20T05:16:03.829Z,10.00
2018-12-20T05:17:07.520Z,10.00
2018-12-20T05:18:10.981Z,10.00
2018-12-20T05:19:14.422Z,10.00
2018-12-20T05:20:17.927Z,10.00
2018-12-20T05:21:21.407Z,10.00
2018-12-20T05:22:24.960Z,10.00
2018-12-20T05:23:28.653Z,10.00
2018-12-20T05:24:32.341Z,10.00
2018-12-20T05:25:35.855Z,10.00
2018-12-20T05:26:39.453Z,10.00
2018-12-20T05:27:43.012Z,10.00
2018-12-20T05:28:46.535Z,10.00
2018-12-20T05:29:49.948Z,10.00
2018-12-20T05:30:53.592Z,10.00
2018-12-20T05:31:57.273Z,10.00
2018-12-20T05:33:00.981Z,10.00
2018-12-20T05:34:04.608Z,10.00
2018-12-20T05:35:08.185Z,9.90
2018-12-20T05:36:11.717Z,9.90
2018-12-20T05:37:15.232Z,9.90
2018-12-20T05:38:18.739Z,9.90
2018-12-20T05:39:22.326Z,9.90
2018-12-20T05:40:25.989Z,9.90
2018-12-20T05:41:29.530Z,9.90
2018-12-20T05:42:33.421Z,9.90
2018-12-20T05:43:37.048Z,9.80
2018-12-20T05:44:40.873Z,9.80
2018-12-20T05:45:44.365Z,9.80
2018-12-20T05:46:47.882Z,9.80
2018-12-20T05:47:51.295Z,9.80
2018-12-20T05:48:54.916Z,9.80
2018-12-20T05:49:58.496Z,9.80
2018-12-20T05:51:02.212Z,9.80
2018-12-20T05:52:05.958Z,9.80
2018-12-20T05:53:09.451Z,9.80
2018-12-20T05:54:12.849Z,9.80
2018-12-20T05:55:16.437Z,9.80
2018-12-20T05:56:19.962Z,9.80
2018-12-20T05:57:23.374Z,9.80
2018-12-20T05:58:26.827Z,9.80
2018-12-20T05:59:30.562Z,9.80
2018-12-20T06:00:34.075Z,9.80
2018-12-20T06:01:37.544Z,9.80
2018-12-20T06:02:41.030Z,9.80
2018-12-20T06:03:44.435Z,9.80
2018-12-20T06:04:48.055Z,9.80
2018-12-20T06:05:51.783Z,9.80
2018-12-20T06:06:55.295Z,9.80
2018-12-20T06:07:58.773Z,9.80
2018-12-20T06:09:02.272Z,9.70
2018-12-20T06:10:05.863Z,9.70
2018-12-20T06:11:09.388Z,9.70
2018-12-20T06:12:12.919Z,9.70
2018-12-20T06:13:16.366Z,9.70
2018-12-20T06:14:19.890Z,9.70
2018-12-20T06:15:23.756Z,9.70
2018-12-20T06:16:27.193Z,9.70
2018-12-20T06:17:30.812Z,9.70
2018-12-20T06:18:34.740Z,9.70
2018-12-20T06:19:38.570Z,9.70
2018-12-20T06:20:42.122Z,9.60
2018-12-20T06:21:45.757Z,9.60
2018-12-20T06:22:49.273Z,9.60
2018-12-20T06:23:52.638Z,9.60
2018-12-20T06:24:56.074Z,9.60
2018-12-20T06:25:59.490Z,9.60
2018-12-20T06:27:02.877Z,9.60
2018-12-20T06:28:06.268Z,9.60
2018-12-20T06:29:09.619Z,9.60
2018-12-20T06:30:13.019Z,9.60
2018-12-20T06:31:16.407Z,9.70
2018-12-20T06:32:19.755Z,9.60
2018-12-20T06:33:23.129Z,9.60
2018-12-20T06:34:26.616Z,9.60
2018-12-20T06:35:30.019Z,9.60
2018-12-20T06:36:33.459Z,9.70
2018-12-20T06:37:36.954Z,9.70
2018-12-20T06:38:41.043Z,9.70
2018-12-20T06:39:45.143Z,9.70
2018-12-20T06:40:49.178Z,9.70
2018-12-20T06:41:53.315Z,9.70
2018-12-20T06:42:57.479Z,9.70
2018-12-20T06:44:07.071Z,9.70
2018-12-20T06:45:06.597Z,9.70
2018-12-20T06:46:10.023Z,9.70
2018-12-20T06:47:13.555Z,9.60
2018-12-20T06:48:16.954Z,9.60
2018-12-20T06:49:20.333Z,9.60
2018-12-20T06:50:23.807Z,9.60
2018-12-20T06:51:27.218Z,9.60
2018-12-20T06:52:30.814Z,9.60
2018-12-20T06:53:34.212Z,9.60
2018-12-20T06:54:37.846Z,9.60
2018-12-20T06:55:41.251Z,9.60
2018-12-20T06:56:44.705Z,9.60
2018-12-20T06:57:48.325Z,9.60
2018-12-20T06:58:51.774Z,9.60
2018-12-20T06:59:55.370Z,9.60
2018-12-20T07:00:58.778Z,9.60
2018-12-20T07:02:02.177Z,9.60
2018-12-20T07:03:05.665Z,9.60
2018-12-20T07:04:09.022Z,9.60
2018-12-20T07:05:12.526Z,9.60
2018-12-20T07:06:15.889Z,9.60
2018-12-20T07:07:19.342Z,9.60
2018-12-20T07:08:22.736Z,9.60
2018-12-20T07:09:26.287Z,9.60
2018-12-20T07:10:29.811Z,9.60
2018-12-20T07:11:33.194Z,9.60
2018-12-20T07:12:36.715Z,9.60
2018-12-20T07:13:40.084Z,9.60
2018-12-20T07:14:43.634Z,9.60
2018-12-20T07:15:47.029Z,9.60
2018-12-20T07:16:50.422Z,9.60
2018-12-20T07:17:54.047Z,9.60
2018-12-20T07:18:57.580Z,9.70
2018-12-20T07:20:01.392Z,9.70
2018-12-20T07:21:05.173Z,9.70
2018-12-20T07:22:08.710Z,9.70
2018-12-20T07:23:12.213Z,9.70
2018-12-20T07:24:16.288Z,9.70
2018-12-20T07:25:19.945Z,9.70
2018-12-20T07:26:24.929Z,9.70
2018-12-20T07:27:28.363Z,9.70
2018-12-20T07:28:31.904Z,9.70
2018-12-20T07:29:35.274Z,9.70
2018-12-20T07:30:38.649Z,9.70
2018-12-20T07:31:42.134Z,9.70
2018-12-20T07:32:45.805Z,9.70
2018-12-20T07:33:49.290Z,9.70
2018-12-20T07:34:52.702Z,9.70
2018-12-20T07:35:57.250Z,9.70
2018-12-20T07:37:03.182Z,9.70
2018-12-20T07:39:19.045Z,9.70
2018-12-20T07:40:22.422Z,9.70
2018-12-20T07:41:26.065Z,9.70
2018-12-20T07:42:29.775Z,9.70
2018-12-20T07:43:33.204Z,9.70
2018-12-20T07:44:37.672Z,9.70
2018-12-20T07:45:41.213Z,9.70
2018-12-20T07:46:44.666Z,9.70
2018-12-20T07:47:48.191Z,9.70
2018-12-20T07:48:51.576Z,9.70
2018-12-20T07:49:55.502Z,9.70
2018-12-20T07:50:58.866Z,9.70
2018-12-20T07:52:02.397Z,9.70
2018-12-20T07:53:05.799Z,9.70
2018-12-20T07:54:09.227Z,9.70
2018-12-20T07:55:12.661Z,9.70
2018-12-20T07:56:16.086Z,9.70
2018-12-20T07:57:19.518Z,9.70
2018-12-20T07:58:22.935Z,9.80
2018-12-20T07:59:30.302Z,9.80
2018-12-20T08:00:34.798Z,9.80
2018-12-20T08:01:38.178Z,9.80
2018-12-20T08:02:41.562Z,9.80
2018-12-20T08:03:45.020Z,9.80
2018-12-20T08:04:48.405Z,9.80
2018-12-20T08:05:51.830Z,9.80
2018-12-20T08:06:55.453Z,9.80
2018-12-20T08:07:58.949Z,9.80
2018-12-20T08:09:02.782Z,9.80
2018-12-20T08:10:08.562Z,9.80
2018-12-20T08:11:12.058Z,9.80
2018-12-20T08:12:15.510Z,9.80
2018-12-20T08:13:18.919Z,9.80
2018-12-20T08:14:22.310Z,9.80
2018-12-20T08:15:25.868Z,9.80
2018-12-20T08:16:29.261Z,9.90
2018-12-20T08:17:32.681Z,9.90
2018-12-20T08:18:36.144Z,9.90
2018-12-20T08:19:39.518Z,9.90
2018-12-20T08:20:47.031Z,9.90
2018-12-20T08:21:50.540Z,9.90
2018-12-20T08:22:53.917Z,9.90
2018-12-20T08:23:57.301Z,9.90
2018-12-20T08:25:00.843Z,9.90
2018-12-20T08:26:04.249Z,9.90
2018-12-20T08:27:07.759Z,9.90
2018-12-20T08:28:11.172Z,9.90
2018-12-20T08:29:14.564Z,9.90
2018-12-20T08:30:18.012Z,9.90
2018-12-20T08:31:21.710Z,10.00
2018-12-20T08:32:25.171Z,10.00
2018-12-20T08:33:28.582Z,10.00
2018-12-20T08:34:31.990Z,10.00
2018-12-20T08:35:35.350Z,10.00
2018-12-20T08:36:38.799Z,9.90
2018-12-20T08:37:42.217Z,10.00
2018-12-20T08:38:45.614Z,10.00
2018-12-20T08:39:48.990Z,10.00
2018-12-20T08:40:52.380Z,10.00
2018-12-20T08:41:55.805Z,10.00
2018-12-20T08:42:59.231Z,10.00
2018-12-20T08:44:02.843Z,10.00
2018-12-20T08:45:06.398Z,10.00
2018-12-20T08:46:09.794Z,10.00
2018-12-20T08:47:13.173Z,10.00
2018-12-20T08:48:16.607Z,10.00
2018-12-20T08:49:19.995Z,10.00
2018-12-20T08:50:23.477Z,10.00
2018-12-20T08:51:26.953Z,10.00
2018-12-20T08:52:30.359Z,10.00
2018-12-20T08:53:33.761Z,10.10
2018-12-20T08:54:37.154Z,10.00
2018-12-20T08:55:40.545Z,10.10
2018-12-20T08:56:43.926Z,10.10
2018-12-20T08:57:47.308Z,10.10
2018-12-20T08:58:50.711Z,10.10
2018-12-20T08:59:54.087Z,10.10
2018-12-20T09:00:57.502Z,10.10
2018-12-20T09:02:00.867Z,10.10
2018-12-20T09:03:04.339Z,10.10
2018-12-20T09:04:07.758Z,10.10
2018-12-20T09:05:11.256Z,10.10
2018-12-20T09:06:14.757Z,10.10
2018-12-20T09:07:18.133Z,10.10
2018-12-20T09:08:21.550Z,10.10
2018-12-20T09:09:24.971Z,10.10
2018-12-20T09:10:28.366Z,10.10
2018-12-20T09:11:31.778Z,10.10
2018-12-20T09:12:35.181Z,10.10
2018-12-20T09:13:38.555Z,10.20
2018-12-20T09:14:42.028Z,10.20
2018-12-20T09:15:45.394Z,10.20
2018-12-20T09:16:49.076Z,10.20
2018-12-20T09:17:52.523Z,10.20
2018-12-20T09:18:55.885Z,10.20
2018-12-20T09:19:59.331Z,10.20
2018-12-20T09:21:02.753Z,10.20
2018-12-20T09:22:06.167Z,10.20
2018-12-20T09:23:09.534Z,10.20
2018-12-20T09:24:12.918Z,10.20
2018-12-20T09:25:16.306Z,10.20
2018-12-20T09:26:19.714Z,10.20
2018-12-20T09:27:23.085Z,10.30
2018-12-20T09:28:26.575Z,10.20
2018-12-20T09:29:29.958Z,10.20
2018-12-20T09:30:33.364Z,10.20
2018-12-20T09:31:36.751Z,10.20
2018-12-20T09:32:40.203Z,10.20
2018-12-20T09:33:43.610Z,10.20
2018-12-20T09:34:47.051Z,10.20
2018-12-20T09:35:50.466Z,10.20
2018-12-20T09:36:53.849Z,10.30
2018-12-20T09:37:57.234Z,10.20
2018-12-20T09:39:00.598Z,10.20
2018-12-20T09:40:03.986Z,10.20
2018-12-20T09:41:07.485Z,10.20
2018-12-20T09:42:10.882Z,10.20
2018-12-20T09:43:14.269Z,10.20
2018-12-20T09:44:17.650Z,10.20
2018-12-20T09:45:21.166Z,10.20
2018-12-20T09:46:24.582Z,10.30
2018-12-20T09:48:31.942Z,10.20
2018-12-20T09:49:35.302Z,10.30
2018-12-20T09:50:38.748Z,10.30
2018-12-20T09:51:42.252Z,10.30
2018-12-20T09:52:45.642Z,10.30
2018-12-20T09:53:49.048Z,10.20
2018-12-20T09:54:52.429Z,10.30
2018-12-20T09:55:55.820Z,10.30
2018-12-20T09:56:59.230Z,10.30
2018-12-20T09:58:02.632Z,10.30
2018-12-20T09:59:06.008Z,10.30
2018-12-20T10:00:10.176Z,10.30
2018-12-20T10:01:13.635Z,10.30
2018-12-20T10:02:17.089Z,10.30
2018-12-20T10:03:20.494Z,10.30
2018-12-20T10:04:23.886Z,10.30
2018-12-20T10:05:27.272Z,10.30
2018-12-20T10:06:30.719Z,10.40
2018-12-20T10:07:34.302Z,10.40
2018-12-20T10:08:37.707Z,10.40
2018-12-20T10:09:41.132Z,10.40
2018-12-20T10:10:44.507Z,10.40
2018-12-20T10:11:47.870Z,10.40
2018-12-20T10:12:51.303Z,10.40
2018-12-20T10:13:54.894Z,10.40
2018-12-20T10:14:58.270Z,10.50
2018-12-20T10:16:01.664Z,10.50
2018-12-20T10:17:05.047Z,10.50
2018-12-20T10:18:08.479Z,10.50
2018-12-20T10:19:12.708Z,10.50
2018-12-20T10:20:16.430Z,10.50
2018-12-20T10:21:21.905Z,10.50
2018-12-20T10:22:25.211Z,10.60
2018-12-20T10:23:28.630Z,10.60
2018-12-20T10:24:32.020Z,10.60
2018-12-20T10:25:35.386Z,10.60
2018-12-20T10:26:38.813Z,10.60
2018-12-20T10:27:42.209Z,10.60
2018-12-20T10:28:45.630Z,10.60
2018-12-20T10:29:49.014Z,10.60
2018-12-20T10:30:52.388Z,10.60
2018-12-20T10:31:55.768Z,10.60
2018-12-20T10:32:59.204Z,10.60
2018-12-20T10:34:02.612Z,10.60
2018-12-20T10:35:06.264Z,10.60
2018-12-20T10:36:09.629Z,10.60
2018-12-20T10:37:12.990Z,10.60
2018-12-20T10:38:16.358Z,10.60
2018-12-20T10:39:19.831Z,10.70
2018-12-20T10:40:23.229Z,10.70
2018-12-20T10:41:26.623Z,10.70
2018-12-20T10:42:30.001Z,10.80
2018-12-20T10:43:33.392Z,10.80
2018-12-20T10:44:36.796Z,10.80
2018-12-20T10:45:40.312Z,10.80
2018-12-20T10:46:44.701Z,10.80
2018-12-20T10:47:53.084Z,10.90
2018-12-20T10:49:03.916Z,10.90
2018-12-20T10:51:24.468Z,10.90
2018-12-20T10:52:27.839Z,10.90
2018-12-20T10:53:31.263Z,10.90
2018-12-20T10:54:34.738Z,10.90
2018-12-20T10:55:38.173Z,10.90
2018-12-20T10:56:41.575Z,10.90
2018-12-20T10:57:44.943Z,10.90
2018-12-20T10:58:48.314Z,10.90
2018-12-20T10:59:51.714Z,10.90
2018-12-20T11:02:04.288Z,11.00
2018-12-20T11:03:13.016Z,10.90
2018-12-20T11:04:22.601Z,10.90
2018-12-20T11:05:31.478Z,11.00
2018-12-20T11:07:38.335Z,11.00
2018-12-20T11:08:47.030Z,11.00
2018-12-20T11:09:55.732Z,11.00
2018-12-20T11:11:05.813Z,11.00
2018-12-20T11:12:11.621Z,11.00
2018-12-20T11:13:20.396Z,11.00
2018-12-20T11:14:23.791Z,11.00
2018-12-20T11:15:27.205Z,11.00
2018-12-20T11:16:30.609Z,11.00
2018-12-20T11:17:37.435Z,11.00
2018-12-20T11:18:39.442Z,11.00
2018-12-20T11:19:42.831Z,11.00
2018-12-20T11:20:46.350Z,11.00
2018-12-20T11:21:49.809Z,11.00
2018-12-20T11:22:53.245Z,11.00
2018-12-20T11:23:56.682Z,11.00
2018-12-20T11:25:00.091Z,11.00
2018-12-20T11:26:03.506Z,11.00
2018-12-20T11:27:06.882Z,11.00
2018-12-20T11:28:10.265Z,11.00
2018-12-20T11:29:13.798Z,11.00
2018-12-20T11:30:17.185Z,11.00
2018-12-20T11:31:20.558Z,11.10
2018-12-20T11:32:23.948Z,11.10
2018-12-20T11:33:27.330Z,11.10
2018-12-20T11:34:30.715Z,11.20
2018-12-20T11:35:34.093Z,11.20
2018-12-20T11:36:37.477Z,11.20
2018-12-20T11:37:40.862Z,11.20
2018-12-20T11:38:44.238Z,11.20
2018-12-20T11:39:47.713Z,11.20
2018-12-20T11:40:51.133Z,11.20
2018-12-20T11:41:54.566Z,11.20
2018-12-20T11:42:58.171Z,11.20
2018-12-20T11:44:01.544Z,11.20
2018-12-20T11:45:05.608Z,11.20
2018-12-20T11:46:08.975Z,11.20
2018-12-20T11:47:17.847Z,11.20
2018-12-20T11:48:21.254Z,11.20
2018-12-20T11:49:24.622Z,11.20
2018-12-20T11:50:28.310Z,11.20
2018-12-20T11:51:31.694Z,11.20
2018-12-20T11:52:42.207Z,11.20
2018-12-20T11:53:40.477Z,11.20
2018-12-20T11:54:43.841Z,11.20
2018-12-20T11:55:47.230Z,11.20
2018-12-20T11:56:50.772Z,11.20
2018-12-20T11:57:54.142Z,11.20
2018-12-20T11:58:57.538Z,11.20
2018-12-20T12:00:00.930Z,11.20
2018-12-20T12:01:04.346Z,11.20
2018-12-20T12:02:07.719Z,11.20
2018-12-20T12:03:11.592Z,11.20
2018-12-20T12:04:14.950Z,11.20
2018-12-20T12:05:18.314Z,11.20
2018-12-20T12:06:21.798Z,11.20
2018-12-20T12:07:25.202Z,11.20
2018-12-20T12:08:28.597Z,11.20
2018-12-20T12:09:32.106Z,11.20
2018-12-20T12:10:35.478Z,11.20
2018-12-20T12:11:38.889Z,11.20
2018-12-20T12:12:42.260Z,11.20
2018-12-20T12:13:45.641Z,11.20
2018-12-20T12:14:49.054Z,11.20
2018-12-20T12:15:52.506Z,11.20
2018-12-20T12:16:55.922Z,11.20
2018-12-20T12:17:59.313Z,11.20
2018-12-20T12:19:02.693Z,11.20
2018-12-20T12:20:07.094Z,11.20
2018-12-20T12:21:10.490Z,11.20
2018-12-20T12:22:13.881Z,11.20
2018-12-20T12:23:17.338Z,11.30
2018-12-20T12:24:20.706Z,11.30
2018-12-20T12:25:24.101Z,11.30
2018-12-20T12:26:27.475Z,11.30
2018-12-20T12:27:30.878Z,11.30
2018-12-20T12:28:34.307Z,11.30
2018-12-20T12:29:37.723Z,11.30
2018-12-20T12:30:41.148Z,11.30
2018-12-20T12:31:44.638Z,11.30
2018-12-20T12:32:48.095Z,11.30
2018-12-20T12:33:51.483Z,11.30
2018-12-20T12:34:54.886Z,11.30
2018-12-20T12:35:58.314Z,11.30
2018-12-20T12:37:01.692Z,11.40
2018-12-20T12:38:05.091Z,11.30
2018-12-20T12:39:08.934Z,11.40
2018-12-20T12:40:12.319Z,11.40
2018-12-20T12:41:15.890Z,11.40
2018-12-20T12:42:19.330Z,11.40
2018-12-20T12:43:22.732Z,11.40
2018-12-20T12:44:26.116Z,11.40
2018-12-20T12:45:29.495Z,11.40
2018-12-20T12:46:32.910Z,11.50
2018-12-20T12:47:41.631Z,11.50
2018-12-20T12:48:45.057Z,11.50
2018-12-20T12:49:48.431Z,11.50
2018-12-20T12:50:51.855Z,11.50
2018-12-20T12:51:55.230Z,11.60
2018-12-20T12:52:58.662Z,11.60
2018-12-20T12:54:02.054Z,11.60
2018-12-20T12:55:05.538Z,11.60
2018-12-20T12:56:08.916Z,11.50
2018-12-20T12:57:12.339Z,11.50
2018-12-20T12:58:15.787Z,11.50
2018-12-20T12:59:19.239Z,11.50
2018-12-20T13:00:22.669Z,11.50
2018-12-20T13:01:26.065Z,11.50
2018-12-20T13:02:29.464Z,11.50
2018-12-20T13:03:32.846Z,11.50
2018-12-20T13:04:36.379Z,11.50
2018-12-20T13:05:40.199Z,11.50
2018-12-20T13:06:43.697Z,11.50
2018-12-20T13:07:47.350Z,11.50
2018-12-20T13:08:50.734Z,11.50
2018-12-20T13:09:54.175Z,11.50
2018-12-20T13:10:58.445Z,11.40
2018-12-20T13:12:01.966Z,11.40
2018-12-20T13:13:05.372Z,11.40
2018-12-20T13:14:08.743Z,11.40
2018-12-20T13:15:12.378Z,11.40
2018-12-20T13:16:15.775Z,11.40
2018-12-20T13:17:19.192Z,11.40
2018-12-20T13:18:22.678Z,11.40
2018-12-20T13:19:26.056Z,11.40
2018-12-20T13:20:29.550Z,11.40
2018-12-20T13:21:32.924Z,11.40
2018-12-20T13:22:36.298Z,11.40
2018-12-20T13:23:39.693Z,11.40
2018-12-20T13:24:43.112Z,11.40
2018-12-20T13:25:46.551Z,11.40
2018-12-20T13:26:49.935Z,11.40
2018-12-20T13:27:53.406Z,11.40
2018-12-20T13:28:56.819Z,11.40
2018-12-20T13:30:00.249Z,11.40
2018-12-20T13:31:03.647Z,11.40
2018-12-20T13:32:07.033Z,11.40
2018-12-20T13:33:10.822Z,11.40
2018-12-20T13:34:14.235Z,11.30
2018-12-20T13:35:17.622Z,11.30
2018-12-20T13:36:21.081Z,11.30
2018-12-20T13:37:24.496Z,11.30
2018-12-20T13:38:27.858Z,11.30
2018-12-20T13:39:31.234Z,11.30
2018-12-20T13:40:34.663Z,11.30
2018-12-20T13:41:38.175Z,11.30
2018-12-20T13:42:41.573Z,11.30
2018-12-20T13:43:44.970Z,11.20
2018-12-20T13:44:48.355Z,11.20
2018-12-20T13:45:51.736Z,11.20
2018-12-20T13:46:55.151Z,11.20
2018-12-20T13:47:58.535Z,11.20
2018-12-20T13:49:01.918Z,11.20
2018-12-20T13:50:07.019Z,11.20
2018-12-20T13:51:10.409Z,11.20
2018-12-20T13:52:13.838Z,11.20
2018-12-20T13:53:17.224Z,11.20
2018-12-20T13:54:20.687Z,11.20
2018-12-20T13:55:27.143Z,11.20
2018-12-20T13:56:37.693Z,11.20
2018-12-20T13:57:45.024Z,11.20